sensor_id;sensor_type;location;lat;lon;timestamp;P1;durP1;ratioP1;P2;durP2;ratioP2
23146;SDS011;11742;53.532;-1.478;2022-10-16T00:00:28;2.63;;;1.10;;
23146;SDS011;11742;53.532;-1.478;2022-10-16T00:02:54;2.45;;;0.80;;
23146;SDS011;11742;53.532;-1.478;2022-10-16T00:05:20;4.30;;;0.82;;
23146;SDS011;11742;53.532;-1.478;2022-10-16T00:07:46;1.67;;;0.70;;
23146;SDS011;11742;53.532;-1.478;2022-10-16T00:10:11;1.75;;;0.70;;
23146;SDS011;11742;53.532;-1.478;2022-10-16T00:12:37;5.35;;;0.80;;
23146;SDS011;11742;53.532;-1.478;2022-10-16T00:15:03;2.75;;;0.80;;
23146;SDS011;11742;53.532;-1.478;2022-10-16T00:17:29;2.58;;;1.00;;
23146;SDS011;11742;53.532;-1.478;2022-10-16T00:19:55;1.50;;;0.73;;
23146;SDS011;11742;53.532;-1.478;2022-10-16T00:22:21;1.25;;;0.57;;
23146;SDS011;11742;53.532;-1.478;2022-10-16T00:24:47;2.17;;;0.63;;
23146;SDS011;11742;53.532;-1.478;2022-10-16T00:27:13;1.17;;;0.57;;
23146;SDS011;11742;53.532;-1.478;2022-10-16T00:29:38;1.42;;;0.50;;
23146;SDS011;11742;53.532;-1.478;2022-10-16T00:32:04;1.70;;;0.70;;
23146;SDS011;11742;53.532;-1.478;2022-10-16T00:34:30;1.77;;;0.73;;
23146;SDS011;11742;53.532;-1.478;2022-10-16T00:36:55;3.47;;;1.27;;
23146;SDS011;11742;53.532;-1.478;2022-10-16T00:39:21;1.48;;;0.70;;
23146;SDS011;11742;53.532;-1.478;2022-10-16T00:41:47;1.00;;;0.63;;
23146;SDS011;11742;53.532;-1.478;2022-10-16T00:47:13;2.58;;;0.75;;
23146;SDS011;11742;53.532;-1.478;2022-10-16T00:49:44;2.83;;;0.85;;
23146;SDS011;11742;53.532;-1.478;2022-10-16T00:52:11;2.65;;;0.73;;
23146;SDS011;11742;53.532;-1.478;2022-10-16T00:54:38;2.28;;;0.60;;
23146;SDS011;11742;53.532;-1.478;2022-10-16T00:57:04;0.82;;;0.63;;
23146;SDS011;11742;53.532;-1.478;2022-10-16T00:59:35;1.15;;;0.68;;
23146;SDS011;11742;53.532;-1.478;2022-10-16T01:02:04;1.98;;;1.05;;
23146;SDS011;11742;53.532;-1.478;2022-10-16T01:04:32;1.48;;;0.60;;
23146;SDS011;11742;53.532;-1.478;2022-10-16T01:09:41;1.90;;;0.70;;
23146;SDS011;11742;53.532;-1.478;2022-10-16T01:15:25;1.27;;;0.50;;
23146;SDS011;11742;53.532;-1.478;2022-10-16T01:20:42;1.65;;;0.52;;
23146;SDS011;11742;53.532;-1.478;2022-10-16T01:26:13;2.20;;;0.50;;
23146;SDS011;11742;53.532;-1.478;2022-10-16T01:31:27;1.48;;;0.65;;
23146;SDS011;11742;53.532;-1.478;2022-10-16T01:34:04;2.30;;;0.88;;
23146;SDS011;11742;53.532;-1.478;2022-10-16T01:36:53;1.77;;;0.65;;
23146;SDS011;11742;53.532;-1.478;2022-10-16T01:39:27;2.75;;;0.60;;
23146;SDS011;11742;53.532;-1.478;2022-10-16T01:41:59;1.23;;;0.52;;
23146;SDS011;11742;53.532;-1.478;2022-10-16T01:44:30;1.95;;;0.80;;
23146;SDS011;11742;53.532;-1.478;2022-10-16T01:46:58;2.38;;;0.95;;
23146;SDS011;11742;53.532;-1.478;2022-10-16T01:49:26;2.88;;;0.80;;
23146;SDS011;11742;53.532;-1.478;2022-10-16T01:51:56;1.40;;;0.82;;
23146;SDS011;11742;53.532;-1.478;2022-10-16T01:54:28;1.95;;;0.70;;
23146;SDS011;11742;53.532;-1.478;2022-10-16T01:56:57;3.08;;;0.90;;
23146;SDS011;11742;53.532;-1.478;2022-10-16T01:59:25;2.15;;;0.80;;
23146;SDS011;11742;53.532;-1.478;2022-10-16T02:01:55;1.67;;;0.68;;
23146;SDS011;11742;53.532;-1.478;2022-10-16T02:04:27;2.40;;;0.68;;
23146;SDS011;11742;53.532;-1.478;2022-10-16T02:06:56;3.08;;;0.73;;
23146;SDS011;11742;53.532;-1.478;2022-10-16T02:09:22;1.10;;;0.63;;
23146;SDS011;11742;53.532;-1.478;2022-10-16T02:11:48;3.03;;;0.68;;
23146;SDS011;11742;53.532;-1.478;2022-10-16T02:14:17;1.63;;;0.50;;
23146;SDS011;11742;53.532;-1.478;2022-10-16T02:16:45;1.33;;;0.73;;
23146;SDS011;11742;53.532;-1.478;2022-10-16T02:19:14;1.23;;;0.60;;
23146;SDS011;11742;53.532;-1.478;2022-10-16T02:21:56;1.13;;;0.63;;
23146;SDS011;11742;53.532;-1.478;2022-10-16T02:24:33;1.48;;;0.60;;
23146;SDS011;11742;53.532;-1.478;2022-10-16T02:29:45;1.33;;;0.55;;
23146;SDS011;11742;53.532;-1.478;2022-10-16T02:32:19;1.23;;;0.50;;
23146;SDS011;11742;53.532;-1.478;2022-10-16T02:34:48;1.75;;;0.50;;
23146;SDS011;11742;53.532;-1.478;2022-10-16T02:37:16;2.20;;;0.43;;
23146;SDS011;11742;53.532;-1.478;2022-10-16T02:39:43;1.80;;;0.50;;
23146;SDS011;11742;53.532;-1.478;2022-10-16T02:42:10;1.67;;;0.75;;
23146;SDS011;11742;53.532;-1.478;2022-10-16T02:44:39;1.73;;;0.60;;
23146;SDS011;11742;53.532;-1.478;2022-10-16T02:47:05;2.92;;;0.77;;
23146;SDS011;11742;53.532;-1.478;2022-10-16T02:49:31;1.15;;;0.50;;
23146;SDS011;11742;53.532;-1.478;2022-10-16T02:51:56;2.83;;;0.73;;
23146;SDS011;11742;53.532;-1.478;2022-10-16T02:54:22;1.67;;;0.47;;
23146;SDS011;11742;53.532;-1.478;2022-10-16T02:56:48;1.85;;;0.50;;
23146;SDS011;11742;53.532;-1.478;2022-10-16T02:59:14;2.10;;;0.55;;
23146;SDS011;11742;53.532;-1.478;2022-10-16T03:01:41;1.30;;;0.57;;
23146;SDS011;11742;53.532;-1.478;2022-10-16T03:04:07;1.15;;;0.63;;
23146;SDS011;11742;53.532;-1.478;2022-10-16T03:06:32;3.63;;;1.08;;
23146;SDS011;11742;53.532;-1.478;2022-10-16T03:08:59;0.52;;;0.30;;
23146;SDS011;11742;53.532;-1.478;2022-10-16T03:11:25;0.47;;;0.30;;
23146;SDS011;11742;53.532;-1.478;2022-10-16T03:13:51;0.82;;;0.50;;
23146;SDS011;11742;53.532;-1.478;2022-10-16T03:16:17;0.77;;;0.40;;
23146;SDS011;11742;53.532;-1.478;2022-10-16T03:18:43;0.88;;;0.30;;
23146;SDS011;11742;53.532;-1.478;2022-10-16T03:21:08;1.42;;;0.40;;
23146;SDS011;11742;53.532;-1.478;2022-10-16T03:23:34;4.72;;;0.60;;
23146;SDS011;11742;53.532;-1.478;2022-10-16T03:25:59;1.80;;;0.50;;
23146;SDS011;11742;53.532;-1.478;2022-10-16T03:28:25;2.38;;;0.40;;
23146;SDS011;11742;53.532;-1.478;2022-10-16T03:30:51;0.43;;;0.40;;
23146;SDS011;11742;53.532;-1.478;2022-10-16T03:33:16;1.10;;;0.40;;
23146;SDS011;11742;53.532;-1.478;2022-10-16T03:35:42;0.82;;;0.45;;
23146;SDS011;11742;53.532;-1.478;2022-10-16T03:38:15;0.98;;;0.50;;
23146;SDS011;11742;53.532;-1.478;2022-10-16T03:40:41;0.80;;;0.40;;
23146;SDS011;11742;53.532;-1.478;2022-10-16T03:43:06;1.20;;;0.50;;
23146;SDS011;11742;53.532;-1.478;2022-10-16T03:45:32;2.13;;;0.70;;
23146;SDS011;11742;53.532;-1.478;2022-10-16T03:47:57;0.82;;;0.43;;
23146;SDS011;11742;53.532;-1.478;2022-10-16T03:50:23;0.60;;;0.32;;
23146;SDS011;11742;53.532;-1.478;2022-10-16T03:52:49;1.15;;;0.50;;
23146;SDS011;11742;53.532;-1.478;2022-10-16T03:55:14;1.88;;;0.63;;
23146;SDS011;11742;53.532;-1.478;2022-10-16T03:57:40;2.08;;;0.60;;
23146;SDS011;11742;53.532;-1.478;2022-10-16T04:00:06;1.75;;;0.43;;
23146;SDS011;11742;53.532;-1.478;2022-10-16T04:02:32;0.82;;;0.40;;
23146;SDS011;11742;53.532;-1.478;2022-10-16T04:04:57;0.30;;;0.30;;
23146;SDS011;11742;53.532;-1.478;2022-10-16T04:07:23;0.88;;;0.40;;
23146;SDS011;11742;53.532;-1.478;2022-10-16T04:09:49;1.05;;;0.50;;
23146;SDS011;11742;53.532;-1.478;2022-10-16T04:12:17;1.50;;;0.68;;
23146;SDS011;11742;53.532;-1.478;2022-10-16T04:14:42;0.50;;;0.45;;
23146;SDS011;11742;53.532;-1.478;2022-10-16T04:17:08;1.05;;;0.60;;
23146;SDS011;11742;53.532;-1.478;2022-10-16T04:19:33;2.35;;;0.50;;
23146;SDS011;11742;53.532;-1.478;2022-10-16T04:21:59;1.05;;;0.60;;
23146;SDS011;11742;53.532;-1.478;2022-10-16T04:24:25;1.40;;;0.47;;
23146;SDS011;11742;53.532;-1.478;2022-10-16T04:26:50;1.00;;;0.35;;
23146;SDS011;11742;53.532;-1.478;2022-10-16T04:29:16;2.25;;;0.50;;
23146;SDS011;11742;53.532;-1.478;2022-10-16T04:31:41;1.25;;;0.43;;
23146;SDS011;11742;53.532;-1.478;2022-10-16T04:34:07;1.02;;;0.32;;
23146;SDS011;11742;53.532;-1.478;2022-10-16T04:36:33;1.73;;;0.60;;
23146;SDS011;11742;53.532;-1.478;2022-10-16T04:38:58;1.23;;;0.40;;
23146;SDS011;11742;53.532;-1.478;2022-10-16T04:41:24;0.38;;;0.30;;
23146;SDS011;11742;53.532;-1.478;2022-10-16T04:43:50;0.40;;;0.30;;
23146;SDS011;11742;53.532;-1.478;2022-10-16T04:46:15;2.65;;;0.75;;
23146;SDS011;11742;53.532;-1.478;2022-10-16T04:48:41;0.47;;;0.38;;
23146;SDS011;11742;53.532;-1.478;2022-10-16T04:51:07;0.80;;;0.50;;
23146;SDS011;11742;53.532;-1.478;2022-10-16T04:53:32;1.20;;;0.40;;
23146;SDS011;11742;53.532;-1.478;2022-10-16T04:55:59;0.60;;;0.50;;
23146;SDS011;11742;53.532;-1.478;2022-10-16T04:58:24;1.92;;;0.57;;
23146;SDS011;11742;53.532;-1.478;2022-10-16T05:00:50;2.80;;;0.50;;
23146;SDS011;11742;53.532;-1.478;2022-10-16T05:03:16;0.57;;;0.40;;
23146;SDS011;11742;53.532;-1.478;2022-10-16T05:05:42;0.80;;;0.40;;
23146;SDS011;11742;53.532;-1.478;2022-10-16T05:08:09;1.55;;;0.50;;
23146;SDS011;11742;53.532;-1.478;2022-10-16T05:10:35;0.45;;;0.28;;
23146;SDS011;11742;53.532;-1.478;2022-10-16T05:13:01;1.02;;;0.40;;
23146;SDS011;11742;53.532;-1.478;2022-10-16T05:15:26;0.40;;;0.40;;
23146;SDS011;11742;53.532;-1.478;2022-10-16T05:17:53;0.15;;;0.15;;
23146;SDS011;11742;53.532;-1.478;2022-10-16T05:20:19;0.20;;;0.20;;
23146;SDS011;11742;53.532;-1.478;2022-10-16T05:22:44;0.82;;;0.32;;
23146;SDS011;11742;53.532;-1.478;2022-10-16T05:25:10;0.65;;;0.40;;
23146;SDS011;11742;53.532;-1.478;2022-10-16T05:27:36;1.05;;;0.40;;
23146;SDS011;11742;53.532;-1.478;2022-10-16T05:30:01;1.05;;;0.40;;
23146;SDS011;11742;53.532;-1.478;2022-10-16T05:32:27;0.47;;;0.30;;
23146;SDS011;11742;53.532;-1.478;2022-10-16T05:34:53;0.93;;;0.32;;
23146;SDS011;11742;53.532;-1.478;2022-10-16T05:37:19;0.80;;;0.30;;
23146;SDS011;11742;53.532;-1.478;2022-10-16T05:39:44;1.08;;;0.30;;
23146;SDS011;11742;53.532;-1.478;2022-10-16T05:42:10;1.27;;;0.38;;
23146;SDS011;11742;53.532;-1.478;2022-10-16T05:44:35;0.70;;;0.30;;
23146;SDS011;11742;53.532;-1.478;2022-10-16T05:47:01;1.45;;;0.40;;
23146;SDS011;11742;53.532;-1.478;2022-10-16T05:49:27;1.20;;;0.40;;
23146;SDS011;11742;53.532;-1.478;2022-10-16T05:51:52;0.52;;;0.30;;
23146;SDS011;11742;53.532;-1.478;2022-10-16T05:54:18;0.45;;;0.30;;
23146;SDS011;11742;53.532;-1.478;2022-10-16T05:56:44;0.43;;;0.40;;
23146;SDS011;11742;53.532;-1.478;2022-10-16T05:59:09;0.45;;;0.30;;
23146;SDS011;11742;53.532;-1.478;2022-10-16T06:01:35;1.75;;;0.40;;
23146;SDS011;11742;53.532;-1.478;2022-10-16T06:04:01;1.60;;;0.40;;
23146;SDS011;11742;53.532;-1.478;2022-10-16T06:06:27;0.70;;;0.30;;
23146;SDS011;11742;53.532;-1.478;2022-10-16T06:08:55;0.55;;;0.30;;
23146;SDS011;11742;53.532;-1.478;2022-10-16T06:11:22;0.73;;;0.25;;
23146;SDS011;11742;53.532;-1.478;2022-10-16T06:13:51;0.88;;;0.40;;
23146;SDS011;11742;53.532;-1.478;2022-10-16T06:16:21;1.17;;;0.30;;
23146;SDS011;11742;53.532;-1.478;2022-10-16T06:18:50;1.92;;;0.43;;
23146;SDS011;11742;53.532;-1.478;2022-10-16T06:21:17;1.30;;;0.43;;
23146;SDS011;11742;53.532;-1.478;2022-10-16T06:23:45;0.77;;;0.40;;
23146;SDS011;11742;53.532;-1.478;2022-10-16T06:26:12;0.30;;;0.30;;
23146;SDS011;11742;53.532;-1.478;2022-10-16T06:28:40;0.20;;;0.20;;
23146;SDS011;11742;53.532;-1.478;2022-10-16T06:31:06;1.55;;;0.32;;
23146;SDS011;11742;53.532;-1.478;2022-10-16T06:33:33;1.00;;;0.30;;
23146;SDS011;11742;53.532;-1.478;2022-10-16T06:36:03;0.77;;;0.30;;
23146;SDS011;11742;53.532;-1.478;2022-10-16T06:38:31;0.60;;;0.30;;
23146;SDS011;11742;53.532;-1.478;2022-10-16T06:40:57;1.35;;;0.40;;
23146;SDS011;11742;53.532;-1.478;2022-10-16T06:43:23;1.25;;;0.73;;
23146;SDS011;11742;53.532;-1.478;2022-10-16T06:45:53;0.10;;;0.10;;
23146;SDS011;11742;53.532;-1.478;2022-10-16T06:48:20;0.63;;;0.40;;
23146;SDS011;11742;53.532;-1.478;2022-10-16T06:53:25;0.30;;;0.30;;
23146;SDS011;11742;53.532;-1.478;2022-10-16T06:55:53;0.73;;;0.30;;
23146;SDS011;11742;53.532;-1.478;2022-10-16T06:58:19;1.05;;;0.30;;
23146;SDS011;11742;53.532;-1.478;2022-10-16T07:00:45;0.93;;;0.43;;
23146;SDS011;11742;53.532;-1.478;2022-10-16T07:03:10;0.60;;;0.28;;
23146;SDS011;11742;53.532;-1.478;2022-10-16T07:05:37;0.57;;;0.30;;
23146;SDS011;11742;53.532;-1.478;2022-10-16T07:08:03;0.25;;;0.25;;
23146;SDS011;11742;53.532;-1.478;2022-10-16T07:10:30;0.35;;;0.28;;
23146;SDS011;11742;53.532;-1.478;2022-10-16T07:12:56;0.25;;;0.20;;
23146;SDS011;11742;53.532;-1.478;2022-10-16T07:15:22;0.80;;;0.40;;
23146;SDS011;11742;53.532;-1.478;2022-10-16T07:17:48;1.35;;;0.52;;
23146;SDS011;11742;53.532;-1.478;2022-10-16T07:20:13;0.47;;;0.30;;
23146;SDS011;11742;53.532;-1.478;2022-10-16T07:22:39;0.88;;;0.30;;
23146;SDS011;11742;53.532;-1.478;2022-10-16T07:25:05;0.77;;;0.35;;
23146;SDS011;11742;53.532;-1.478;2022-10-16T07:27:31;1.20;;;0.63;;
23146;SDS011;11742;53.532;-1.478;2022-10-16T07:29:56;1.27;;;0.50;;
23146;SDS011;11742;53.532;-1.478;2022-10-16T07:32:22;0.20;;;0.20;;
23146;SDS011;11742;53.532;-1.478;2022-10-16T07:34:48;0.43;;;0.40;;
23146;SDS011;11742;53.532;-1.478;2022-10-16T07:37:14;0.55;;;0.45;;
23146;SDS011;11742;53.532;-1.478;2022-10-16T07:39:39;0.73;;;0.30;;
23146;SDS011;11742;53.532;-1.478;2022-10-16T07:42:05;0.73;;;0.30;;
23146;SDS011;11742;53.532;-1.478;2022-10-16T07:44:32;0.77;;;0.35;;
23146;SDS011;11742;53.532;-1.478;2022-10-16T07:46:58;0.60;;;0.30;;
23146;SDS011;11742;53.532;-1.478;2022-10-16T07:49:24;0.77;;;0.40;;
23146;SDS011;11742;53.532;-1.478;2022-10-16T07:51:49;0.40;;;0.25;;
23146;SDS011;11742;53.532;-1.478;2022-10-16T07:54:15;0.65;;;0.40;;
23146;SDS011;11742;53.532;-1.478;2022-10-16T07:56:41;0.45;;;0.30;;
23146;SDS011;11742;53.532;-1.478;2022-10-16T07:59:06;0.65;;;0.30;;
23146;SDS011;11742;53.532;-1.478;2022-10-16T08:01:32;0.95;;;0.30;;
23146;SDS011;11742;53.532;-1.478;2022-10-16T08:03:58;0.28;;;0.28;;
23146;SDS011;11742;53.532;-1.478;2022-10-16T08:06:23;0.45;;;0.20;;
23146;SDS011;11742;53.532;-1.478;2022-10-16T08:08:49;0.20;;;0.20;;
23146;SDS011;11742;53.532;-1.478;2022-10-16T08:11:15;0.90;;;0.30;;
23146;SDS011;11742;53.532;-1.478;2022-10-16T08:13:41;1.02;;;0.40;;
23146;SDS011;11742;53.532;-1.478;2022-10-16T08:16:07;0.80;;;0.40;;
23146;SDS011;11742;53.532;-1.478;2022-10-16T08:18:36;0.32;;;0.25;;
23146;SDS011;11742;53.532;-1.478;2022-10-16T08:21:03;0.90;;;0.38;;
23146;SDS011;11742;53.532;-1.478;2022-10-16T08:23:29;0.80;;;0.30;;
23146;SDS011;11742;53.532;-1.478;2022-10-16T08:25:56;0.38;;;0.30;;
23146;SDS011;11742;53.532;-1.478;2022-10-16T08:28:27;0.38;;;0.28;;
23146;SDS011;11742;53.532;-1.478;2022-10-16T08:30:52;3.33;;;0.50;;
23146;SDS011;11742;53.532;-1.478;2022-10-16T08:33:18;0.32;;;0.30;;
23146;SDS011;11742;53.532;-1.478;2022-10-16T08:35:53;0.55;;;0.20;;
23146;SDS011;11742;53.532;-1.478;2022-10-16T08:38:19;0.68;;;0.35;;
23146;SDS011;11742;53.532;-1.478;2022-10-16T08:40:45;1.00;;;0.40;;
23146;SDS011;11742;53.532;-1.478;2022-10-16T08:46:04;1.08;;;0.40;;
23146;SDS011;11742;53.532;-1.478;2022-10-16T08:48:54;0.30;;;0.20;;
23146;SDS011;11742;53.532;-1.478;2022-10-16T08:51:31;0.95;;;0.57;;
23146;SDS011;11742;53.532;-1.478;2022-10-16T08:54:04;0.73;;;0.43;;
23146;SDS011;11742;53.532;-1.478;2022-10-16T08:56:31;1.45;;;0.32;;
23146;SDS011;11742;53.532;-1.478;2022-10-16T08:58:58;0.43;;;0.30;;
23146;SDS011;11742;53.532;-1.478;2022-10-16T09:01:25;0.43;;;0.30;;
23146;SDS011;11742;53.532;-1.478;2022-10-16T09:12:17;2.15;;;0.47;;
23146;SDS011;11742;53.532;-1.478;2022-10-16T09:20:22;2.28;;;0.68;;
23146;SDS011;11742;53.532;-1.478;2022-10-16T09:23:00;2.00;;;0.55;;
23146;SDS011;11742;53.532;-1.478;2022-10-16T09:25:37;1.13;;;0.57;;
23146;SDS011;11742;53.532;-1.478;2022-10-16T09:28:07;4.03;;;0.60;;
23146;SDS011;11742;53.532;-1.478;2022-10-16T09:30:34;2.97;;;0.70;;
23146;SDS011;11742;53.532;-1.478;2022-10-16T09:33:00;2.03;;;0.80;;
23146;SDS011;11742;53.532;-1.478;2022-10-16T09:35:40;0.32;;;0.32;;
23146;SDS011;11742;53.532;-1.478;2022-10-16T09:40:49;2.85;;;0.63;;
23146;SDS011;11742;53.532;-1.478;2022-10-16T09:48:44;1.45;;;0.35;;
23146;SDS011;11742;53.532;-1.478;2022-10-16T09:51:22;1.05;;;0.35;;
23146;SDS011;11742;53.532;-1.478;2022-10-16T09:53:56;3.65;;;0.88;;
23146;SDS011;11742;53.532;-1.478;2022-10-16T09:56:27;8.13;;;0.80;;
23146;SDS011;11742;53.532;-1.478;2022-10-16T09:58:55;4.60;;;0.90;;
23146;SDS011;11742;53.532;-1.478;2022-10-16T10:01:26;2.17;;;0.52;;
23146;SDS011;11742;53.532;-1.478;2022-10-16T10:03:56;2.05;;;0.43;;
23146;SDS011;11742;53.532;-1.478;2022-10-16T10:06:30;0.93;;;0.38;;
23146;SDS011;11742;53.532;-1.478;2022-10-16T10:09:04;1.23;;;0.32;;
23146;SDS011;11742;53.532;-1.478;2022-10-16T10:11:39;2.72;;;0.50;;
23146;SDS011;11742;53.532;-1.478;2022-10-16T10:14:30;2.80;;;0.50;;
23146;SDS011;11742;53.532;-1.478;2022-10-16T10:19:44;1.35;;;0.70;;
23146;SDS011;11742;53.532;-1.478;2022-10-16T10:22:29;0.47;;;0.32;;
23146;SDS011;11742;53.532;-1.478;2022-10-16T10:25:07;0.98;;;0.47;;
23146;SDS011;11742;53.532;-1.478;2022-10-16T10:30:22;0.80;;;0.47;;
23146;SDS011;11742;53.532;-1.478;2022-10-16T10:33:00;0.75;;;0.32;;
23146;SDS011;11742;53.532;-1.478;2022-10-16T10:40:59;0.40;;;0.20;;
23146;SDS011;11742;53.532;-1.478;2022-10-16T10:46:02;1.00;;;0.40;;
23146;SDS011;11742;53.532;-1.478;2022-10-16T10:51:04;1.45;;;0.30;;
23146;SDS011;11742;53.532;-1.478;2022-10-16T11:06:43;6.03;;;0.47;;
23146;SDS011;11742;53.532;-1.478;2022-10-16T11:09:16;1.60;;;0.40;;
23146;SDS011;11742;53.532;-1.478;2022-10-16T11:14:26;3.17;;;0.60;;
23146;SDS011;11742;53.532;-1.478;2022-10-16T11:19:58;2.08;;;0.52;;
23146;SDS011;11742;53.532;-1.478;2022-10-16T11:22:48;2.38;;;0.90;;
23146;SDS011;11742;53.532;-1.478;2022-10-16T11:25:36;0.82;;;0.45;;
23146;SDS011;11742;53.532;-1.478;2022-10-16T11:28:03;5.07;;;0.57;;
23146;SDS011;11742;53.532;-1.478;2022-10-16T11:30:47;0.30;;;0.30;;
23146;SDS011;11742;53.532;-1.478;2022-10-16T11:41:06;1.38;;;0.32;;
23146;SDS011;11742;53.532;-1.478;2022-10-16T11:43:45;1.00;;;0.30;;
23146;SDS011;11742;53.532;-1.478;2022-10-16T11:46:19;0.43;;;0.20;;
23146;SDS011;11742;53.532;-1.478;2022-10-16T11:51:39;0.20;;;0.20;;
23146;SDS011;11742;53.532;-1.478;2022-10-16T11:54:21;0.60;;;0.40;;
23146;SDS011;11742;53.532;-1.478;2022-10-16T11:56:59;0.40;;;0.35;;
23146;SDS011;11742;53.532;-1.478;2022-10-16T11:59:35;1.23;;;0.38;;
23146;SDS011;11742;53.532;-1.478;2022-10-16T12:05:01;2.10;;;0.80;;
23146;SDS011;11742;53.532;-1.478;2022-10-16T12:08:12;0.40;;;0.30;;
23146;SDS011;11742;53.532;-1.478;2022-10-16T12:10:37;1.50;;;0.60;;
23146;SDS011;11742;53.532;-1.478;2022-10-16T12:13:05;0.50;;;0.50;;
23146;SDS011;11742;53.532;-1.478;2022-10-16T12:19:03;1.38;;;0.63;;
23146;SDS011;11742;53.532;-1.478;2022-10-16T12:21:36;1.70;;;0.63;;
23146;SDS011;11742;53.532;-1.478;2022-10-16T12:24:02;1.10;;;0.55;;
23146;SDS011;11742;53.532;-1.478;2022-10-16T12:26:31;1.35;;;0.38;;
23146;SDS011;11742;53.532;-1.478;2022-10-16T12:29:33;0.40;;;0.40;;
23146;SDS011;11742;53.532;-1.478;2022-10-16T12:32:28;0.50;;;0.40;;
23146;SDS011;11742;53.532;-1.478;2022-10-16T12:35:00;1.15;;;0.40;;
23146;SDS011;11742;53.532;-1.478;2022-10-16T12:40:04;1.30;;;0.50;;
23146;SDS011;11742;53.532;-1.478;2022-10-16T12:42:41;0.65;;;0.40;;
23146;SDS011;11742;53.532;-1.478;2022-10-16T12:45:27;0.38;;;0.38;;
23146;SDS011;11742;53.532;-1.478;2022-10-16T12:47:59;0.70;;;0.45;;
23146;SDS011;11742;53.532;-1.478;2022-10-16T12:50:42;1.13;;;0.50;;
23146;SDS011;11742;53.532;-1.478;2022-10-16T12:53:19;1.27;;;0.43;;
23146;SDS011;11742;53.532;-1.478;2022-10-16T12:55:52;0.68;;;0.43;;
23146;SDS011;11742;53.532;-1.478;2022-10-16T13:09:31;0.55;;;0.30;;
23146;SDS011;11742;53.532;-1.478;2022-10-16T13:20:20;0.52;;;0.50;;
23146;SDS011;11742;53.532;-1.478;2022-10-16T13:23:12;0.98;;;0.45;;
23146;SDS011;11742;53.532;-1.478;2022-10-16T13:26:11;1.00;;;0.80;;
23146;SDS011;11742;53.532;-1.478;2022-10-16T13:28:38;1.15;;;0.80;;
23146;SDS011;11742;53.532;-1.478;2022-10-16T13:31:04;1.70;;;0.93;;
23146;SDS011;11742;53.532;-1.478;2022-10-16T13:33:42;1.77;;;0.90;;
23146;SDS011;11742;53.532;-1.478;2022-10-16T13:36:23;2.42;;;1.60;;
23146;SDS011;11742;53.532;-1.478;2022-10-16T13:41:35;7.70;;;3.90;;
23146;SDS011;11742;53.532;-1.478;2022-10-16T13:44:01;10.68;;;4.65;;
23146;SDS011;11742;53.532;-1.478;2022-10-16T13:46:27;10.68;;;5.55;;
23146;SDS011;11742;53.532;-1.478;2022-10-16T13:49:01;8.55;;;4.93;;
23146;SDS011;11742;53.532;-1.478;2022-10-16T13:51:30;8.23;;;4.63;;
23146;SDS011;11742;53.532;-1.478;2022-10-16T13:53:57;6.20;;;3.70;;
23146;SDS011;11742;53.532;-1.478;2022-10-16T13:56:25;6.65;;;4.00;;
23146;SDS011;11742;53.532;-1.478;2022-10-16T14:01:35;5.97;;;3.63;;
23146;SDS011;11742;53.532;-1.478;2022-10-16T14:04:11;8.75;;;4.57;;
23146;SDS011;11742;53.532;-1.478;2022-10-16T14:06:42;7.63;;;4.47;;
23146;SDS011;11742;53.532;-1.478;2022-10-16T14:11:56;6.32;;;3.72;;
23146;SDS011;11742;53.532;-1.478;2022-10-16T14:14:31;8.23;;;3.75;;
23146;SDS011;11742;53.532;-1.478;2022-10-16T14:19:45;6.25;;;3.40;;
23146;SDS011;11742;53.532;-1.478;2022-10-16T14:22:25;6.22;;;3.33;;
23146;SDS011;11742;53.532;-1.478;2022-10-16T14:24:54;5.75;;;3.05;;
23146;SDS011;11742;53.532;-1.478;2022-10-16T14:27:24;6.20;;;3.15;;
23146;SDS011;11742;53.532;-1.478;2022-10-16T14:30:18;5.65;;;2.67;;
23146;SDS011;11742;53.532;-1.478;2022-10-16T14:33:03;5.28;;;3.33;;
23146;SDS011;11742;53.532;-1.478;2022-10-16T14:35:32;5.22;;;2.70;;
23146;SDS011;11742;53.532;-1.478;2022-10-16T14:38:00;5.28;;;2.92;;
23146;SDS011;11742;53.532;-1.478;2022-10-16T14:40:28;4.82;;;2.90;;
23146;SDS011;11742;53.532;-1.478;2022-10-16T14:42:59;4.38;;;2.53;;
23146;SDS011;11742;53.532;-1.478;2022-10-16T14:45:33;4.43;;;2.15;;
23146;SDS011;11742;53.532;-1.478;2022-10-16T14:48:01;4.85;;;2.28;;
23146;SDS011;11742;53.532;-1.478;2022-10-16T14:50:31;4.13;;;2.53;;
23146;SDS011;11742;53.532;-1.478;2022-10-16T14:52:56;2.92;;;2.00;;
23146;SDS011;11742;53.532;-1.478;2022-10-16T14:55:23;3.72;;;2.25;;
23146;SDS011;11742;53.532;-1.478;2022-10-16T14:57:50;5.85;;;2.00;;
23146;SDS011;11742;53.532;-1.478;2022-10-16T15:02:46;2.97;;;1.70;;
23146;SDS011;11742;53.532;-1.478;2022-10-16T15:05:24;1.95;;;1.42;;
23146;SDS011;11742;53.532;-1.478;2022-10-16T15:07:52;2.55;;;1.55;;
23146;SDS011;11742;53.532;-1.478;2022-10-16T15:10:19;2.80;;;1.48;;
23146;SDS011;11742;53.532;-1.478;2022-10-16T15:12:50;2.63;;;1.50;;
23146;SDS011;11742;53.532;-1.478;2022-10-16T15:15:27;2.63;;;1.23;;
23146;SDS011;11742;53.532;-1.478;2022-10-16T15:18:06;2.85;;;1.15;;
23146;SDS011;11742;53.532;-1.478;2022-10-16T15:20:33;1.60;;;1.10;;
23146;SDS011;11742;53.532;-1.478;2022-10-16T15:23:01;2.75;;;1.00;;
23146;SDS011;11742;53.532;-1.478;2022-10-16T15:25:38;2.45;;;1.30;;
23146;SDS011;11742;53.532;-1.478;2022-10-16T15:28:09;2.05;;;1.10;;
23146;SDS011;11742;53.532;-1.478;2022-10-16T15:30:36;1.25;;;1.00;;
23146;SDS011;11742;53.532;-1.478;2022-10-16T15:33:02;1.92;;;1.17;;
23146;SDS011;11742;53.532;-1.478;2022-10-16T15:35:28;1.10;;;0.80;;
23146;SDS011;11742;53.532;-1.478;2022-10-16T15:37:56;2.25;;;0.93;;
23146;SDS011;11742;53.532;-1.478;2022-10-16T15:40:22;2.03;;;0.80;;
23146;SDS011;11742;53.532;-1.478;2022-10-16T15:42:48;1.35;;;0.80;;
23146;SDS011;11742;53.532;-1.478;2022-10-16T15:45:14;1.95;;;0.93;;
23146;SDS011;11742;53.532;-1.478;2022-10-16T15:47:41;2.08;;;0.90;;
23146;SDS011;11742;53.532;-1.478;2022-10-16T15:50:09;1.83;;;0.70;;
23146;SDS011;11742;53.532;-1.478;2022-10-16T15:52:36;1.30;;;0.75;;
23146;SDS011;11742;53.532;-1.478;2022-10-16T15:55:04;10.70;;;1.98;;
23146;SDS011;11742;53.532;-1.478;2022-10-16T15:57:34;26.33;;;2.50;;
23146;SDS011;11742;53.532;-1.478;2022-10-16T16:00:03;38.92;;;3.72;;
23146;SDS011;11742;53.532;-1.478;2022-10-16T16:02:33;15.65;;;2.72;;
23146;SDS011;11742;53.532;-1.478;2022-10-16T16:04:59;18.80;;;2.17;;
23146;SDS011;11742;53.532;-1.478;2022-10-16T16:07:24;9.55;;;1.83;;
23146;SDS011;11742;53.532;-1.478;2022-10-16T16:09:50;13.68;;;1.80;;
23146;SDS011;11742;53.532;-1.478;2022-10-16T16:12:15;17.05;;;2.00;;
23146;SDS011;11742;53.532;-1.478;2022-10-16T16:14:41;6.65;;;1.63;;
23146;SDS011;11742;53.532;-1.478;2022-10-16T16:17:07;9.15;;;2.38;;
23146;SDS011;11742;53.532;-1.478;2022-10-16T16:19:33;11.90;;;1.65;;
23146;SDS011;11742;53.532;-1.478;2022-10-16T16:21:58;5.38;;;1.48;;
23146;SDS011;11742;53.532;-1.478;2022-10-16T16:24:24;7.88;;;1.75;;
23146;SDS011;11742;53.532;-1.478;2022-10-16T16:26:50;7.60;;;1.20;;
23146;SDS011;11742;53.532;-1.478;2022-10-16T16:29:16;7.18;;;1.30;;
23146;SDS011;11742;53.532;-1.478;2022-10-16T16:31:41;3.35;;;1.10;;
23146;SDS011;11742;53.532;-1.478;2022-10-16T16:34:08;6.45;;;1.23;;
23146;SDS011;11742;53.532;-1.478;2022-10-16T16:36:34;5.15;;;1.30;;
23146;SDS011;11742;53.532;-1.478;2022-10-16T16:39:00;3.30;;;1.05;;
23146;SDS011;11742;53.532;-1.478;2022-10-16T16:41:28;1.50;;;0.90;;
23146;SDS011;11742;53.532;-1.478;2022-10-16T16:43:55;2.58;;;1.23;;
23146;SDS011;11742;53.532;-1.478;2022-10-16T16:46:26;2.10;;;1.00;;
23146;SDS011;11742;53.532;-1.478;2022-10-16T16:48:52;1.70;;;1.05;;
23146;SDS011;11742;53.532;-1.478;2022-10-16T16:51:20;4.43;;;1.15;;
23146;SDS011;11742;53.532;-1.478;2022-10-16T16:53:47;3.50;;;1.52;;
23146;SDS011;11742;53.532;-1.478;2022-10-16T16:56:15;2.00;;;1.08;;
23146;SDS011;11742;53.532;-1.478;2022-10-16T16:58:44;3.72;;;1.10;;